sensor_id;sensor_type;location;lat;lon;timestamp;temperature;humidity
49441;DHT22;35317;51.978;6.296;2023-02-14T00:03:03;2.70;99.90
49441;DHT22;35317;51.978;6.296;2023-02-14T00:08:04;2.60;99.90
49441;DHT22;35317;51.978;6.296;2023-02-14T00:13:04;2.60;99.90
49441;DHT22;35317;51.978;6.296;2023-02-14T00:18:05;2.60;99.90
49441;DHT22;35317;51.978;6.296;2023-02-14T00:23:06;2.50;99.90
49441;DHT22;35317;51.978;6.296;2023-02-14T00:28:07;2.50;99.90
49441;DHT22;35317;51.978;6.296;2023-02-14T00:33:07;2.50;99.90
49441;DHT22;35317;51.978;6.296;2023-02-14T00:38:08;2.40;99.90
49441;DHT22;35317;51.978;6.296;2023-02-14T00:43:09;2.40;99.90
49441;DHT22;35317;51.978;6.296;2023-02-14T00:48:10;2.40;99.90
49441;DHT22;35317;51.978;6.296;2023-02-14T00:53:11;2.30;99.90
49441;DHT22;35317;51.978;6.296;2023-02-14T00:58:12;2.30;99.90
49441;DHT22;35317;51.978;6.296;2023-02-14T01:03:13;2.40;99.90
49441;DHT22;35317;51.978;6.296;2023-02-14T01:08:14;2.40;99.90
49441;DHT22;35317;51.978;6.296;2023-02-14T01:13:15;2.40;99.90
49441;DHT22;35317;51.978;6.296;2023-02-14T01:18:17;2.30;99.90
49441;DHT22;35317;51.978;6.296;2023-02-14T01:23:18;2.30;99.90
49441;DHT22;35317;51.978;6.296;2023-02-14T01:28:19;2.20;99.90
49441;DHT22;35317;51.978;6.296;2023-02-14T01:33:20;2.10;99.90
49441;DHT22;35317;51.978;6.296;2023-02-14T01:38:21;2.10;99.90
49441;DHT22;35317;51.978;6.296;2023-02-14T01:43:21;2.00;99.90
49441;DHT22;35317;51.978;6.296;2023-02-14T01:48:23;2.00;99.90
49441;DHT22;35317;51.978;6.296;2023-02-14T01:53:27;1.90;99.90
49441;DHT22;35317;51.978;6.296;2023-02-14T01:58:29;1.90;99.90
49441;DHT22;35317;51.978;6.296;2023-02-14T02:03:43;1.90;99.90
49441;DHT22;35317;51.978;6.296;2023-02-14T02:08:59;1.80;99.90
49441;DHT22;35317;51.978;6.296;2023-02-14T02:14:12;1.80;99.90
49441;DHT22;35317;51.978;6.296;2023-02-14T02:24:43;1.70;99.90
49441;DHT22;35317;51.978;6.296;2023-02-14T02:46:25;1.50;99.90
49441;DHT22;35317;51.978;6.296;2023-02-14T02:51:51;1.40;99.90
49441;DHT22;35317;51.978;6.296;2023-02-14T02:57:14;1.40;99.90
49441;DHT22;35317;51.978;6.296;2023-02-14T03:02:25;1.30;99.90
49441;DHT22;35317;51.978;6.296;2023-02-14T03:07:35;1.30;99.90
49441;DHT22;35317;51.978;6.296;2023-02-14T03:29:25;1.10;99.90
49441;DHT22;35317;51.978;6.296;2023-02-14T03:34:37;1.10;99.90
49441;DHT22;35317;51.978;6.296;2023-02-14T03:39:58;1.10;99.90
49441;DHT22;35317;51.978;6.296;2023-02-14T03:45:07;1.10;99.90
49441;DHT22;35317;51.978;6.296;2023-02-14T03:50:18;1.00;99.90
49441;DHT22;35317;51.978;6.296;2023-02-14T03:55:26;1.00;99.90
49441;DHT22;35317;51.978;6.296;2023-02-14T04:00:31;1.00;99.90
49441;DHT22;35317;51.978;6.296;2023-02-14T04:05:37;0.90;99.90
49441;DHT22;35317;51.978;6.296;2023-02-14T04:10:42;0.90;99.90
49441;DHT22;35317;51.978;6.296;2023-02-14T04:15:43;0.90;99.90
49441;DHT22;35317;51.978;6.296;2023-02-14T04:20:44;0.80;99.90
49441;DHT22;35317;51.978;6.296;2023-02-14T04:25:45;0.80;99.90
49441;DHT22;35317;51.978;6.296;2023-02-14T04:30:46;0.80;99.90
49441;DHT22;35317;51.978;6.296;2023-02-14T04:35:49;0.80;99.90
49441;DHT22;35317;51.978;6.296;2023-02-14T04:40:51;0.80;99.90
49441;DHT22;35317;51.978;6.296;2023-02-14T04:45:51;0.80;99.90
49441;DHT22;35317;51.978;6.296;2023-02-14T04:50:53;0.80;99.90
49441;DHT22;35317;51.978;6.296;2023-02-14T04:55:54;0.80;99.90
49441;DHT22;35317;51.978;6.296;2023-02-14T05:00:55;0.80;99.90
49441;DHT22;35317;51.978;6.296;2023-02-14T05:05:56;0.80;99.90
49441;DHT22;35317;51.978;6.296;2023-02-14T05:10:56;0.80;99.90
49441;DHT22;35317;51.978;6.296;2023-02-14T05:15:57;0.80;99.90
49441;DHT22;35317;51.978;6.296;2023-02-14T05:20:58;0.80;99.90
49441;DHT22;35317;51.978;6.296;2023-02-14T05:25:59;0.80;99.90
49441;DHT22;35317;51.978;6.296;2023-02-14T05:31:00;0.80;99.90
49441;DHT22;35317;51.978;6.296;2023-02-14T05:36:00;0.80;99.90
49441;DHT22;35317;51.978;6.296;2023-02-14T05:41:02;0.90;99.90
49441;DHT22;35317;51.978;6.296;2023-02-14T05:46:03;0.90;99.90
49441;DHT22;35317;51.978;6.296;2023-02-14T05:51:08;0.90;99.90
49441;DHT22;35317;51.978;6.296;2023-02-14T05:56:09;0.90;99.90
49441;DHT22;35317;51.978;6.296;2023-02-14T06:01:10;0.90;99.90
49441;DHT22;35317;51.978;6.296;2023-02-14T06:06:11;0.90;99.90
49441;DHT22;35317;51.978;6.296;2023-02-14T06:11:11;1.00;99.90
49441;DHT22;35317;51.978;6.296;2023-02-14T06:16:12;1.00;99.90
49441;DHT22;35317;51.978;6.296;2023-02-14T06:21:13;1.00;99.90
49441;DHT22;35317;51.978;6.296;2023-02-14T06:26:13;1.10;99.90
49441;DHT22;35317;51.978;6.296;2023-02-14T06:31:16;1.10;99.90
49441;DHT22;35317;51.978;6.296;2023-02-14T06:36:17;1.10;99.90
49441;DHT22;35317;51.978;6.296;2023-02-14T06:41:18;1.10;99.90
49441;DHT22;35317;51.978;6.296;2023-02-14T06:46:19;1.20;99.90
49441;DHT22;35317;51.978;6.296;2023-02-14T06:51:20;1.20;99.90
49441;DHT22;35317;51.978;6.296;2023-02-14T06:56:21;1.20;99.90
49441;DHT22;35317;51.978;6.296;2023-02-14T07:01:22;1.20;99.90
49441;DHT22;35317;51.978;6.296;2023-02-14T07:06:23;1.30;99.90
49441;DHT22;35317;51.978;6.296;2023-02-14T07:11:23;1.30;99.90
49441;DHT22;35317;51.978;6.296;2023-02-14T07:16:25;1.30;99.90
49441;DHT22;35317;51.978;6.296;2023-02-14T07:21:25;1.30;99.90
49441;DHT22;35317;51.978;6.296;2023-02-14T07:26:26;1.40;99.90
49441;DHT22;35317;51.978;6.296;2023-02-14T07:31:27;1.50;99.90
49441;DHT22;35317;51.978;6.296;2023-02-14T07:36:28;1.50;99.90
49441;DHT22;35317;51.978;6.296;2023-02-14T07:41:28;1.60;99.90
49441;DHT22;35317;51.978;6.296;2023-02-14T07:46:29;1.70;99.90
49441;DHT22;35317;51.978;6.296;2023-02-14T07:51:30;1.70;99.90
49441;DHT22;35317;51.978;6.296;2023-02-14T07:56:31;1.80;99.90
49441;DHT22;35317;51.978;6.296;2023-02-14T08:01:31;1.80;99.90
49441;DHT22;35317;51.978;6.296;2023-02-14T08:06:32;1.90;99.90
49441;DHT22;35317;51.978;6.296;2023-02-14T08:11:33;2.00;99.90
49441;DHT22;35317;51.978;6.296;2023-02-14T08:16:52;2.10;99.90
49441;DHT22;35317;51.978;6.296;2023-02-14T08:21:53;2.20;99.90
49441;DHT22;35317;51.978;6.296;2023-02-14T08:26:54;2.40;99.90
49441;DHT22;35317;51.978;6.296;2023-02-14T08:31:55;2.60;99.90
49441;DHT22;35317;51.978;6.296;2023-02-14T08:36:59;2.80;99.90
49441;DHT22;35317;51.978;6.296;2023-02-14T08:42:00;3.10;99.90
49441;DHT22;35317;51.978;6.296;2023-02-14T08:47:00;3.30;99.90
49441;DHT22;35317;51.978;6.296;2023-02-14T08:52:01;3.50;99.90
49441;DHT22;35317;51.978;6.296;2023-02-14T08:57:02;3.70;99.90
49441;DHT22;35317;51.978;6.296;2023-02-14T09:02:03;3.90;99.90
49441;DHT22;35317;51.978;6.296;2023-02-14T09:07:03;4.10;99.90
49441;DHT22;35317;51.978;6.296;2023-02-14T09:12:06;4.30;99.90
49441;DHT22;35317;51.978;6.296;2023-02-14T09:17:07;4.50;99.90
49441;DHT22;35317;51.978;6.296;2023-02-14T09:22:09;4.70;99.90
49441;DHT22;35317;51.978;6.296;2023-02-14T09:27:11;4.80;99.90
49441;DHT22;35317;51.978;6.296;2023-02-14T09:32:11;5.00;99.90
49441;DHT22;35317;51.978;6.296;2023-02-14T09:37:12;5.20;99.90
49441;DHT22;35317;51.978;6.296;2023-02-14T09:42:32;5.30;99.90
49441;DHT22;35317;51.978;6.296;2023-02-14T09:58:25;5.80;99.90
49441;DHT22;35317;51.978;6.296;2023-02-14T10:14:23;6.30;99.90
49441;DHT22;35317;51.978;6.296;2023-02-14T10:19:40;6.50;99.90
49441;DHT22;35317;51.978;6.296;2023-02-14T10:24:59;6.60;99.90
49441;DHT22;35317;51.978;6.296;2023-02-14T10:35:42;7.00;99.90
49441;DHT22;35317;51.978;6.296;2023-02-14T10:41:22;7.10;99.90
49441;DHT22;35317;51.978;6.296;2023-02-14T10:57:50;7.80;99.90
49441;DHT22;35317;51.978;6.296;2023-02-14T11:02:58;8.00;99.90
49441;DHT22;35317;51.978;6.296;2023-02-14T11:08:01;8.20;99.90
49441;DHT22;35317;51.978;6.296;2023-02-14T11:13:35;8.40;99.90
49441;DHT22;35317;51.978;6.296;2023-02-14T11:18:39;8.50;99.90
49441;DHT22;35317;51.978;6.296;2023-02-14T11:23:43;8.70;99.90
49441;DHT22;35317;51.978;6.296;2023-02-14T11:28:52;8.90;99.90
49441;DHT22;35317;51.978;6.296;2023-02-14T11:33:54;9.00;99.90
49441;DHT22;35317;51.978;6.296;2023-02-14T11:39:10;9.20;99.90
49441;DHT22;35317;51.978;6.296;2023-02-14T11:44:22;9.40;99.90
49441;DHT22;35317;51.978;6.296;2023-02-14T11:54:36;9.70;99.90
49441;DHT22;35317;51.978;6.296;2023-02-14T11:59:45;9.80;99.90
49441;DHT22;35317;51.978;6.296;2023-02-14T12:04:49;10.00;99.90
49441;DHT22;35317;51.978;6.296;2023-02-14T12:15:37;10.30;99.90
49441;DHT22;35317;51.978;6.296;2023-02-14T12:26:24;10.60;99.90
49441;DHT22;35317;51.978;6.296;2023-02-14T12:31:29;10.70;99.90
49441;DHT22;35317;51.978;6.296;2023-02-14T12:42:16;11.00;99.60
49441;DHT22;35317;51.978;6.296;2023-02-14T12:47:51;11.30;99.60
49441;DHT22;35317;51.978;6.296;2023-02-14T13:20:26;14.90;92.50
49441;DHT22;35317;51.978;6.296;2023-02-14T13:25:39;15.40;91.50
49441;DHT22;35317;51.978;6.296;2023-02-14T13:30:48;15.80;89.30
49441;DHT22;35317;51.978;6.296;2023-02-14T13:35:49;15.90;88.90
49441;DHT22;35317;51.978;6.296;2023-02-14T13:40:54;16.10;87.00
49441;DHT22;35317;51.978;6.296;2023-02-14T13:45:57;16.40;85.20
49441;DHT22;35317;51.978;6.296;2023-02-14T14:12:07;16.80;77.70
49441;DHT22;35317;51.978;6.296;2023-02-14T14:17:24;16.90;77.80
49441;DHT22;35317;51.978;6.296;2023-02-14T14:22:26;16.80;77.00
49441;DHT22;35317;51.978;6.296;2023-02-14T14:27:34;16.80;76.60
49441;DHT22;35317;51.978;6.296;2023-02-14T14:32:40;16.70;75.90
49441;DHT22;35317;51.978;6.296;2023-02-14T14:37:56;16.70;75.30
49441;DHT22;35317;51.978;6.296;2023-02-14T14:43:10;16.60;73.80
49441;DHT22;35317;51.978;6.296;2023-02-14T14:48:27;16.40;74.30
49441;DHT22;35317;51.978;6.296;2023-02-14T14:58:57;16.60;73.70
49441;DHT22;35317;51.978;6.296;2023-02-14T15:09:23;16.50;72.80
49441;DHT22;35317;51.978;6.296;2023-02-14T15:14:34;16.50;72.40
49441;DHT22;35317;51.978;6.296;2023-02-14T15:19:40;16.50;72.00
49441;DHT22;35317;51.978;6.296;2023-02-14T15:24:43;16.50;71.80
49441;DHT22;35317;51.978;6.296;2023-02-14T15:29:56;16.30;71.90
49441;DHT22;35317;51.978;6.296;2023-02-14T15:35:01;16.20;72.50
49441;DHT22;35317;51.978;6.296;2023-02-14T15:40:04;15.80;72.90
49441;DHT22;35317;51.978;6.296;2023-02-14T15:50:30;14.90;74.80
49441;DHT22;35317;51.978;6.296;2023-02-14T15:55:33;14.40;75.60
49441;DHT22;35317;51.978;6.296;2023-02-14T16:00:34;14.00;76.80
49441;DHT22;35317;51.978;6.296;2023-02-14T16:05:35;13.60;77.80
49441;DHT22;35317;51.978;6.296;2023-02-14T16:10:39;13.20;79.00
49441;DHT22;35317;51.978;6.296;2023-02-14T16:15:58;12.90;80.10
49441;DHT22;35317;51.978;6.296;2023-02-14T16:21:22;12.60;81.30
49441;DHT22;35317;51.978;6.296;2023-02-14T16:26:24;12.20;82.20
49441;DHT22;35317;51.978;6.296;2023-02-14T16:31:25;11.80;83.30
49441;DHT22;35317;51.978;6.296;2023-02-14T16:36:31;11.50;84.20
49441;DHT22;35317;51.978;6.296;2023-02-14T16:41:33;11.20;85.50
49441;DHT22;35317;51.978;6.296;2023-02-14T16:46:35;10.80;86.20
49441;DHT22;35317;51.978;6.296;2023-02-14T16:51:36;10.50;86.90
49441;DHT22;35317;51.978;6.296;2023-02-14T16:56:57;10.20;87.70
49441;DHT22;35317;51.978;6.296;2023-02-14T17:02:00;9.90;88.30
49441;DHT22;35317;51.978;6.296;2023-02-14T17:07:01;9.60;89.00
49441;DHT22;35317;51.978;6.296;2023-02-14T17:12:10;9.30;90.00
49441;DHT22;35317;51.978;6.296;2023-02-14T17:17:16;9.00;90.40
49441;DHT22;35317;51.978;6.296;2023-02-14T17:22:16;8.80;90.60
49441;DHT22;35317;51.978;6.296;2023-02-14T17:27:17;8.50;90.80
49441;DHT22;35317;51.978;6.296;2023-02-14T17:32:18;8.20;91.30
49441;DHT22;35317;51.978;6.296;2023-02-14T17:37:19;8.00;92.00
49441;DHT22;35317;51.978;6.296;2023-02-14T17:42:20;7.80;92.20
49441;DHT22;35317;51.978;6.296;2023-02-14T17:47:21;7.60;92.60
49441;DHT22;35317;51.978;6.296;2023-02-14T17:52:22;7.50;93.00
49441;DHT22;35317;51.978;6.296;2023-02-14T17:57:23;7.30;93.40
49441;DHT22;35317;51.978;6.296;2023-02-14T18:02:24;7.10;93.50
49441;DHT22;35317;51.978;6.296;2023-02-14T18:07:25;7.00;93.70
49441;DHT22;35317;51.978;6.296;2023-02-14T18:12:26;6.80;94.00
49441;DHT22;35317;51.978;6.296;2023-02-14T18:17:27;6.60;94.20
49441;DHT22;35317;51.978;6.296;2023-02-14T18:22:27;6.50;94.50
49441;DHT22;35317;51.978;6.296;2023-02-14T18:27:28;6.40;95.00
49441;DHT22;35317;51.978;6.296;2023-02-14T18:32:31;6.30;95.40
49441;DHT22;35317;51.978;6.296;2023-02-14T18:37:31;6.20;95.70
49441;DHT22;35317;51.978;6.296;2023-02-14T18:42:32;6.00;96.00
49441;DHT22;35317;51.978;6.296;2023-02-14T18:47:33;5.90;96.30
49441;DHT22;35317;51.978;6.296;2023-02-14T18:52:35;5.80;96.60
49441;DHT22;35317;51.978;6.296;2023-02-14T18:57:36;5.70;97.00
49441;DHT22;35317;51.978;6.296;2023-02-14T19:02:37;5.50;97.10
49441;DHT22;35317;51.978;6.296;2023-02-14T19:07:41;5.40;97.20
49441;DHT22;35317;51.978;6.296;2023-02-14T19:12:41;5.30;97.30
49441;DHT22;35317;51.978;6.296;2023-02-14T19:17:42;5.20;97.50
49441;DHT22;35317;51.978;6.296;2023-02-14T19:22:43;5.10;97.60
49441;DHT22;35317;51.978;6.296;2023-02-14T19:27:44;4.90;97.80
49441;DHT22;35317;51.978;6.296;2023-02-14T19:32:44;4.80;98.00
49441;DHT22;35317;51.978;6.296;2023-02-14T19:37:45;4.80;98.20
49441;DHT22;35317;51.978;6.296;2023-02-14T19:42:46;4.70;98.50
49441;DHT22;35317;51.978;6.296;2023-02-14T19:47:47;4.60;98.80
49441;DHT22;35317;51.978;6.296;2023-02-14T19:52:48;4.50;99.00
49441;DHT22;35317;51.978;6.296;2023-02-14T19:57:49;4.40;99.10
49441;DHT22;35317;51.978;6.296;2023-02-14T20:02:50;4.30;99.30
49441;DHT22;35317;51.978;6.296;2023-02-14T20:07:51;4.20;99.50
49441;DHT22;35317;51.978;6.296;2023-02-14T20:12:54;4.10;99.70
49441;DHT22;35317;51.978;6.296;2023-02-14T20:17:55;4.10;99.90
49441;DHT22;35317;51.978;6.296;2023-02-14T20:22:56;4.00;99.90
49441;DHT22;35317;51.978;6.296;2023-02-14T20:27:57;3.90;99.90
49441;DHT22;35317;51.978;6.296;2023-02-14T20:32:58;3.80;99.90
49441;DHT22;35317;51.978;6.296;2023-02-14T20:37:59;3.70;99.90
49441;DHT22;35317;51.978;6.296;2023-02-14T20:43:00;3.70;99.90
49441;DHT22;35317;51.978;6.296;2023-02-14T20:48:01;3.60;99.90
49441;DHT22;35317;51.978;6.296;2023-02-14T20:53:03;3.50;99.90
49441;DHT22;35317;51.978;6.296;2023-02-14T20:58:04;3.40;99.90
49441;DHT22;35317;51.978;6.296;2023-02-14T21:03:05;3.40;99.90
49441;DHT22;35317;51.978;6.296;2023-02-14T21:08:05;3.30;99.90
49441;DHT22;35317;51.978;6.296;2023-02-14T21:13:06;3.30;99.90
49441;DHT22;35317;51.978;6.296;2023-02-14T21:18:07;3.20;99.90
49441;DHT22;35317;51.978;6.296;2023-02-14T21:23:08;3.20;99.90
49441;DHT22;35317;51.978;6.296;2023-02-14T21:28:09;3.10;99.90
49441;DHT22;35317;51.978;6.296;2023-02-14T21:33:09;3.10;99.90
49441;DHT22;35317;51.978;6.296;2023-02-14T21:38:10;3.00;99.90
49441;DHT22;35317;51.978;6.296;2023-02-14T21:43:11;3.00;99.90
49441;DHT22;35317;51.978;6.296;2023-02-14T21:48:12;3.00;99.90
49441;DHT22;35317;51.978;6.296;2023-02-14T21:53:31;2.90;99.90
49441;DHT22;35317;51.978;6.296;2023-02-14T21:58:32;2.90;99.90
49441;DHT22;35317;51.978;6.296;2023-02-14T22:03:33;2.80;99.90
49441;DHT22;35317;51.978;6.296;2023-02-14T22:08:35;2.80;99.90
49441;DHT22;35317;51.978;6.296;2023-02-14T22:13:36;2.80;99.90
49441;DHT22;35317;51.978;6.296;2023-02-14T22:18:37;2.80;99.90
49441;DHT22;35317;51.978;6.296;2023-02-14T22:23:39;2.70;99.90
49441;DHT22;35317;51.978;6.296;2023-02-14T22:28:42;2.70;99.90
49441;DHT22;35317;51.978;6.296;2023-02-14T22:33:44;2.60;99.90
49441;DHT22;35317;51.978;6.296;2023-02-14T22:38:46;2.60;99.90
49441;DHT22;35317;51.978;6.296;2023-02-14T22:43:47;2.50;99.90
49441;DHT22;35317;51.978;6.296;2023-02-14T22:48:49;2.50;99.90
49441;DHT22;35317;51.978;6.296;2023-02-14T22:53:52;2.50;99.90
49441;DHT22;35317;51.978;6.296;2023-02-14T22:58:56;2.40;99.90
49441;DHT22;35317;51.978;6.296;2023-02-14T23:04:04;2.30;99.90
49441;DHT22;35317;51.978;6.296;2023-02-14T23:09:07;2.30;99.90
49441;DHT22;35317;51.978;6.296;2023-02-14T23:14:11;2.30;99.90
49441;DHT22;35317;51.978;6.296;2023-02-14T23:19:33;2.30;99.90
49441;DHT22;35317;51.978;6.296;2023-02-14T23:24:56;2.20;99.90
49441;DHT22;35317;51.978;6.296;2023-02-14T23:29:58;2.20;99.90
49441;DHT22;35317;51.978;6.296;2023-02-14T23:34:59;2.20;99.90
49441;DHT22;35317;51.978;6.296;2023-02-14T23:40:00;2.10;99.90
49441;DHT22;35317;51.978;6.296;2023-02-14T23:45:01;2.10;99.90
49441;DHT22;35317;51.978;6.296;2023-02-14T23:50:20;2.00;99.90
49441;DHT22;35317;51.978;6.296;2023-02-14T23:55:21;2.00;99.90
